Phnom Penh, Cambodia
Current Conditions -  °F | °C
As of 10:00 AM on Saturday 22 Nov 2014 (Local Time) from VDPP Reporting Station
Broken Clouds Broken Clouds  
Wind Chill: 82°   Ceiling: 4000
Heat Index: 89°   Visibility: 6mi
Dew Point: 75°   Wind: 7mph
Humidity: 79%   Direction: 40°NE
Pressure: 29.88"   Gusts: NA
Location:  11.56°N, 104.92°E
Report Text: VDPP 220300Z 04006KT 340V070 9999 SCT017 BKN040 28/24 Q1012
Loading
Personal Weather Stations






























Interactive Weather Map New forecast layout! Learn more

10-Day Weather Forecast

Advertisements
Track Severe Weather on mobile